Time;durP1;ratioP1;P1;durP2;ratioP2;P2;SDS_P1;SDS_P2;PMS_P1;PMS_P2;Temp;Humidity;BMP_temperature;BMP_pressure;BME280_temperature;BME280_humidity;BME280_pressure;Samples;Min_cycle;Max_cycle;Signal;HPM_P1;HPM_P2
2023/04/15 00:00:42;;;;;;;8.27;3.97;;;;;;;7.41;70.69;100671.56;5074023;28;20028;-84
2023/04/15 00:03:07;;;;;;;10.07;4.30;;;;;;;7.47;69.81;100687.91;5065149;28;20033;-84
2023/04/15 00:05:33;;;;;;;7.90;4.47;;;;;;;7.40;70.00;100690.50;5074116;28;20461;-84
2023/04/15 00:08:00;;;;;;;8.33;4.23;;;;;;;7.41;70.27;100688.78;5073369;28;20041;-84
2023/04/15 00:10:25;;;;;;;;;;;;;;;7.36;71.36;100686.22;5073476;28;20031;-84
2023/04/15 00:12:51;;;;;;;10.30;4.70;;;;;;;7.30;71.94;100686.25;5074296;28;19999;-84
2023/04/15 00:15:16;;;;;;;10.67;5.33;;;;;;;7.25;72.07;100696.59;5074173;28;20020;-84
2023/04/15 00:17:42;;;;;;;12.13;5.47;;;;;;;7.23;72.30;100685.41;5082600;28;20063;-84
2023/04/15 00:20:07;;;;;;;13.17;6.00;;;;;;;7.20;71.40;100682.84;5094426;28;20020;-84
2023/04/15 00:22:32;;;;;;;10.63;4.80;;;;;;;7.22;72.50;100691.44;5094610;28;20026;-84
2023/04/15 00:25:01;;;;;;;11.53;5.43;;;;;;;7.18;72.51;100687.16;5093759;28;20027;-84
2023/04/15 00:27:26;;;;;;;13.88;5.53;;;;;;;7.13;72.11;100685.47;5094051;28;20066;-83
2023/04/15 00:29:51;;;;;;;13.67;5.70;;;;;;;7.09;72.89;100679.47;5094367;28;20480;-84
2023/04/15 00:32:17;;;;;;;13.23;5.60;;;;;;;7.08;73.21;100685.47;5093571;28;20024;-84
2023/04/15 00:34:46;;;;;;;11.10;5.60;;;;;;;7.06;73.29;100684.63;5093936;28;20032;-84
2023/04/15 00:37:11;;;;;;;12.65;5.15;;;;;;;7.03;72.86;100680.34;5093227;28;20024;-84
2023/04/15 00:39:36;;;;;;;13.03;5.23;;;;;;;7.02;73.23;100681.19;5092553;28;20453;-84
2023/04/15 00:42:03;;;;;;;11.53;5.70;;;;;;;7.01;73.68;100683.75;5093470;28;20035;-84
2023/04/15 00:44:29;;;;;;;;;;;;;;;6.99;73.57;100688.06;5083808;28;20028;-84
2023/04/15 00:46:54;;;;;;;11.00;5.70;;;;;;;6.97;73.02;100684.66;5072441;28;19916;-83
2023/04/15 00:49:20;;;;;;;14.77;5.75;;;;;;;6.94;73.67;100685.50;5073173;28;20020;-84
2023/04/15 00:51:45;;;;;;;11.37;5.50;;;;;;;6.90;73.78;100684.66;5073104;28;20357;-84
2023/04/15 00:54:11;;;;;;;12.10;6.00;;;;;;;6.90;74.10;100688.97;5072380;28;20036;-83
2023/04/15 00:56:38;;;;;;;12.27;5.77;;;;;;;6.88;74.11;100688.94;5073352;28;20091;-84
2023/04/15 00:59:05;;;;;;;15.15;6.22;;;;;;;6.83;74.12;100684.66;5072421;28;20035;-83
2023/04/15 01:01:30;;;;;;;;;;;;;;;6.77;74.47;100683.84;5072337;28;20037;-83
2023/04/15 01:03:59;;;;;;;14.03;6.80;;;;;;;6.76;74.17;100684.69;5073027;28;19916;-85
2023/04/15 01:06:24;;;;;;;13.40;6.35;;;;;;;6.73;74.36;100683.84;5072262;28;20035;-84
2023/04/15 01:08:49;;;;;;;13.90;6.87;;;;;;;6.69;75.07;100687.28;5072894;28;20036;-83
2023/04/15 01:11:16;;;;;;;13.32;6.47;;;;;;;6.64;75.18;100684.72;5073033;28;20075;-84
2023/04/15 01:13:41;;;;;;;12.48;6.40;;;;;;;6.60;75.36;100676.13;5072097;28;20112;-84
2023/04/15 01:16:08;;;;;;;15.80;7.20;;;;;;;6.57;75.51;100685.59;5073078;28;20029;-83
2023/04/15 01:18:36;;;;;;;16.13;6.93;;;;;;;6.54;75.42;100683.84;5072469;28;20040;-83
2023/04/15 01:21:03;;;;;;;14.52;6.90;;;;;;;6.44;75.32;100669.25;5072051;28;20033;-85
2023/04/15 01:23:29;;;;;;;13.90;6.97;;;;;;;6.48;75.17;100679.56;5072411;28;20447;-83
2023/04/15 01:25:55;;;;;;;13.33;6.67;;;;;;;6.46;75.81;100686.47;5074195;28;20050;-84
2023/04/15 01:28:20;;;;;;;10.73;6.40;;;;;;;6.45;75.53;100684.75;5072175;28;20051;-83
2023/04/15 01:30:46;;;;;;;10.17;5.70;;;;;;;6.43;75.17;100680.44;5072824;28;20455;-83
2023/04/15 01:33:11;;;;;;;15.25;6.57;;;;;;;6.37;75.90;100685.59;5072323;28;20508;-83
2023/04/15 01:35:36;;;;;;;14.23;6.93;;;;;;;6.36;75.93;100686.47;5071828;28;20055;-84
2023/04/15 01:38:07;;;;;;;14.43;6.88;;;;;;;6.30;76.41;100680.47;5072984;28;20039;-84
2023/04/15 01:40:33;;;;;;;12.80;6.43;;;;;;;6.33;75.58;100680.44;5072615;28;20027;-84
2023/04/15 01:43:00;;;;;;;12.85;6.45;;;;;;;6.32;76.40;100678.72;5071854;28;20023;-83
2023/04/15 01:45:25;;;;;;;13.48;6.10;;;;;;;6.31;75.52;100687.31;5071895;28;20025;-84
2023/04/15 01:47:50;;;;;;;11.38;5.40;;;;;;;6.28;75.35;100678.72;5082728;28;20464;-83
2023/04/15 01:50:16;;;;;;;7.00;4.82;;;;;;;6.27;75.53;100688.19;5091787;28;20032;-83
2023/04/15 01:52:42;;;;;;;8.75;4.88;;;;;;;6.27;76.00;100683.03;5092475;28;20032;-84
2023/04/15 01:55:08;;;;;;;11.80;6.23;;;;;;;6.24;76.46;100690.75;5092670;28;20404;-83
2023/04/15 01:57:33;;;;;;;14.32;7.18;;;;;;;6.19;76.93;100684.75;5091625;28;20294;-84
2023/04/15 01:59:59;;;;;;;16.15;7.85;;;;;;;6.15;77.30;100685.59;5092639;28;20464;-83
2023/04/15 02:02:27;;;;;;;13.77;7.33;;;;;;;6.20;77.27;100688.19;5091788;28;20027;-83
2023/04/15 02:04:52;;;;;;;12.98;6.50;;;;;;;6.17;77.15;100679.59;5092818;28;20110;-83
2023/04/15 02:07:18;;;;;;;9.87;5.77;;;;;;;6.18;76.01;100683.88;5092025;28;20440;-83
2023/04/15 02:09:44;;;;;;;8.93;5.20;;;;;;;6.16;76.67;100688.16;5091804;28;20028;-83
2023/04/15 02:12:10;;;;;;;10.65;6.13;;;;;;;6.08;78.34;100686.47;5092713;28;20024;-83
2023/04/15 02:14:36;;;;;;;14.93;7.68;;;;;;;5.97;78.06;100682.09;5092269;28;20417;-83
2023/04/15 02:17:06;;;;;;;16.07;7.90;;;;;;;5.92;79.04;100688.09;5087755;28;20047;-83
2023/04/15 02:19:32;;;;;;;15.85;8.40;;;;;;;5.88;79.00;100685.56;5069634;28;20035;-83
2023/04/15 02:22:02;;;;;;;17.80;8.30;;;;;;;5.91;79.40;100697.56;5072448;28;20025;-83
2023/04/15 02:24:30;;;;;;;15.07;7.82;;;;;;;5.84;79.67;100698.44;5071468;28;20044;-83
2023/04/15 02:26:56;;;;;;;17.23;9.00;;;;;;;5.82;79.71;100698.41;5072345;28;20025;-83
2023/04/15 02:29:24;;;;;;;17.83;8.95;;;;;;;5.82;79.26;100694.97;5072027;28;20028;-83
2023/04/15 02:31:49;;;;;;;16.45;8.00;;;;;;;5.80;80.00;100701.84;5071406;28;20032;-83
2023/04/15 02:34:15;;;;;;;17.37;8.77;;;;;;;5.72;79.92;100694.97;5071997;28;20385;-83
2023/04/15 02:36:40;;;;;;;17.92;8.65;;;;;;;5.76;80.30;100703.56;5072023;28;20075;-84
2023/04/15 02:39:06;;;;;;;17.25;8.75;;;;;;;5.75;79.39;100701.84;5071183;28;20035;-83
2023/04/15 02:41:31;;;;;;;14.23;7.90;;;;;;;5.78;79.48;100707.00;5071375;28;20039;-83
2023/04/15 02:43:56;;;;;;;13.88;6.90;;;;;;;5.75;78.94;100709.56;5073957;28;20021;-83
2023/04/15 02:46:22;;;;;;;12.57;6.32;;;;;;;5.76;78.08;100716.44;5074559;28;20029;-83
2023/04/15 02:48:48;;;;;;;12.50;6.45;;;;;;;5.74;79.30;100714.72;5093767;28;20353;-84
2023/04/15 02:51:18;;;;;;;13.15;7.00;;;;;;;5.70;79.40;100718.97;5095604;28;20556;-84
2023/04/15 02:53:46;;;;;;;15.68;8.02;;;;;;;5.67;80.01;100718.97;5094906;28;20024;-84
2023/04/15 02:56:11;;;;;;;15.20;7.78;;;;;;;5.64;81.03;100730.13;5093772;28;20035;-84
2023/04/15 02:58:37;;;;;;;16.37;8.47;;;;;;;5.59;81.38;100725.81;5094673;28;20028;-83
2023/04/15 03:01:02;;;;;;;18.25;8.45;;;;;;;5.55;81.84;100719.78;5095587;28;20043;-83
2023/04/15 03:03:27;;;;;;;17.20;9.13;;;;;;;5.49;81.94;100718.06;5096235;28;20044;-83
2023/04/15 03:05:53;;;;;;;17.27;9.20;;;;;;;5.50;82.22;100724.91;5095597;28;20050;-84
2023/04/15 03:08:19;;;;;;;17.93;8.83;;;;;;;5.48;82.50;100724.06;5096351;28;20036;-83
2023/04/15 03:10:47;;;;;;;16.55;8.27;;;;;;;5.49;82.69;100725.78;5096011;28;20035;-83
2023/04/15 03:13:13;;;;;;;16.58;8.70;;;;;;;5.44;83.25;100721.47;5094559;28;20024;-83
2023/04/15 03:15:38;;;;;;;16.50;8.80;;;;;;;5.41;83.38;100724.88;5095230;28;20031;-83
2023/04/15 03:18:03;;;;;;;16.47;8.33;;;;;;;5.41;83.36;100727.47;5095075;28;20468;-83
2023/04/15 03:20:28;;;;;;;17.37;8.70;;;;;;;5.37;83.66;100724.03;5093749;28;20122;-83
2023/04/15 03:22:54;;;;;;;18.00;8.80;;;;;;;5.35;84.11;100724.84;5095284;28;20020;-83
2023/04/15 03:25:19;;;;;;;16.40;8.47;;;;;;;5.35;83.83;100733.44;5094873;28;20027;-83
2023/04/15 03:27:45;;;;;;;17.42;9.27;;;;;;;5.29;84.35;100729.97;5094371;28;20054;-83
2023/04/15 03:30:11;;;;;;;17.25;9.10;;;;;;;5.28;84.09;100729.13;5095102;28;20376;-83
2023/04/15 03:32:36;;;;;;;16.80;8.10;;;;;;;5.31;84.44;100736.84;5094765;28;20483;-83
2023/04/15 03:35:02;;;;;;;15.98;8.00;;;;;;;5.33;82.44;100745.44;5094075;28;20032;-83
2023/04/15 03:37:30;;;;;;;14.20;7.43;;;;;;;5.27;84.60;100742.84;5086451;28;20059;-83
2023/04/15 03:39:55;;;;;;;13.25;6.70;;;;;;;5.30;83.88;100749.72;5074409;28;20385;-83
2023/04/15 03:42:20;;;;;;;13.37;7.03;;;;;;;5.26;83.67;100747.13;5073955;28;20029;-83
2023/04/15 03:44:46;;;;;;;13.38;7.05;;;;;;;5.25;83.66;100752.28;5092714;28;20020;-83
2023/04/15 03:47:11;;;;;;;15.82;7.95;;;;;;;5.19;85.27;100762.50;5089543;28;20060;-83
2023/04/15 03:49:36;;;;;;;16.27;8.15;;;;;;;5.17;85.55;100766.81;5073700;28;20028;-83
2023/04/15 03:52:02;;;;;;;18.67;9.48;;;;;;;5.11;85.75;100754.78;5074581;28;20029;-84
2023/04/15 03:54:27;;;;;;;18.47;9.20;;;;;;;5.14;86.22;100767.63;5073678;28;20053;-83
2023/04/15 03:56:52;;;;;;;16.97;9.17;;;;;;;5.08;86.60;100765.03;5073496;28;20021;-83
2023/04/15 03:59:17;;;;;;;19.17;10.18;;;;;;;5.08;86.80;100768.47;5073910;28;20384;-83
2023/04/15 04:01:43;;;;;;;19.00;9.65;;;;;;;5.01;87.30;100765.88;5073421;28;20032;-83
2023/04/15 04:04:08;;;;;;;18.25;9.38;;;;;;;5.05;87.27;100776.19;5073578;28;20021;-83
2023/04/15 04:06:33;;;;;;;17.77;9.02;;;;;;;5.02;87.28;100781.28;5074480;28;20379;-84
2023/04/15 04:09:00;;;;;;;18.98;9.00;;;;;;;5.00;87.12;100785.56;5073713;28;20037;-83
2023/04/15 04:11:28;;;;;;;17.70;9.15;;;;;;;5.01;87.71;100786.44;5073795;28;20039;-83
2023/04/15 04:13:53;;;;;;;17.45;9.35;;;;;;;4.92;87.90;100782.09;5073896;28;20024;-83
2023/04/15 04:16:19;;;;;;;17.27;9.40;;;;;;;4.96;88.10;100801.81;5073459;28;20035;-83
2023/04/15 04:18:44;;;;;;;18.52;9.60;;;;;;;4.91;88.02;100794.06;5074745;28;20067;-83
2023/04/15 04:21:10;;;;;;;16.73;9.10;;;;;;;4.93;88.42;100802.66;5074079;28;20526;-83
2023/04/15 04:23:35;;;;;;;17.90;9.13;;;;;;;4.90;88.44;100802.63;5073216;28;20094;-84
2023/04/15 04:26:01;;;;;;;19.52;9.50;;;;;;;4.91;89.11;100811.22;5073880;28;20099;-83
2023/04/15 04:28:26;;;;;;;18.17;9.50;;;;;;;4.93;88.39;100812.09;5073508;28;20031;-83
2023/04/15 04:30:52;;;;;;;16.67;9.18;;;;;;;4.93;88.07;100817.25;5073219;28;20453;-83
2023/04/15 04:33:17;;;;;;;18.02;9.05;;;;;;;4.91;88.72;100818.94;5073982;28;20041;-84
2023/04/15 04:35:42;;;;;;;15.50;8.27;;;;;;;4.91;88.23;100819.78;5073552;28;20029;-83
2023/04/15 04:38:10;;;;;;;19.67;9.10;;;;;;;4.90;89.09;100827.50;5073018;28;20378;-83
2023/04/15 04:40:36;;;;;;;19.45;9.68;;;;;;;4.83;89.98;100824.03;5073183;28;20432;-83
2023/04/15 04:43:01;;;;;;;18.60;9.70;;;;;;;4.92;88.87;100836.94;5073572;28;20059;-83
2023/04/15 04:45:27;;;;;;;18.33;9.70;;;;;;;4.86;90.18;100836.91;5072646;28;20023;-84
2023/04/15 04:47:52;;;;;;;17.58;9.02;;;;;;;4.91;89.00;100834.38;5073398;28;20042;-83
2023/04/15 04:50:17;;;;;;;18.55;9.32;;;;;;;4.91;89.66;100844.66;5073588;28;20123;-83
2023/04/15 04:52:42;;;;;;;17.95;9.57;;;;;;;4.94;89.69;100854.97;5072538;28;20027;-84
2023/04/15 04:55:08;;;;;;;16.50;8.57;;;;;;;4.91;89.44;100845.50;5072849;28;20068;-84
2023/04/15 04:57:34;;;;;;;16.48;9.02;;;;;;;4.92;89.01;100848.97;5072712;28;20392;-83
2023/04/15 05:00:01;;;;;;;17.50;8.90;;;;;;;4.87;89.97;100848.91;5072513;28;20476;-84
2023/04/15 05:02:26;;;;;;;19.27;10.15;;;;;;;4.87;90.51;100856.63;5072852;28;20028;-83
2023/04/15 05:04:53;;;;;;;18.42;9.35;;;;;;;4.85;90.82;100849.72;5073205;28;20153;-83
2023/04/15 05:07:19;;;;;;;18.88;9.20;;;;;;;4.90;90.35;100851.50;5071434;28;20083;-83
2023/04/15 05:09:45;;;;;;;18.38;9.70;;;;;;;4.87;90.86;100855.75;5073060;28;20048;-83
2023/04/15 05:12:13;;;;;;;18.43;9.33;;;;;;;4.93;89.40;100864.38;5072833;28;20477;-84
2023/04/15 05:14:41;;;;;;;15.13;8.27;;;;;;;4.93;89.95;100868.69;5072643;28;20140;-83
2023/04/15 05:17:07;;;;;;;16.40;8.43;;;;;;;4.95;90.87;100867.84;5084806;28;20024;-84
2023/04/15 05:19:36;;;;;;;17.75;9.25;;;;;;;4.97;90.37;100875.56;5092490;28;20024;-83
2023/04/15 05:22:01;;;;;;;16.23;8.20;;;;;;;4.98;89.72;100877.28;5092800;28;20158;-84
2023/04/15 05:24:26;;;;;;;17.50;9.50;;;;;;;4.98;90.76;100886.72;5092841;28;20492;-84
2023/04/15 05:26:52;;;;;;;19.20;9.63;;;;;;;5.01;90.81;100892.75;5092519;28;20032;-84
2023/04/15 05:29:23;;;;;;;19.02;9.90;;;;;;;5.02;90.63;100894.47;5093324;28;20032;-84
2023/04/15 05:31:48;;;;;;;19.30;9.77;;;;;;;5.02;90.84;100898.75;5092057;28;20172;-84
2023/04/15 05:34:15;;;;;;;19.53;9.93;;;;;;;5.05;91.09;100907.38;5092315;28;20052;-84
2023/04/15 05:36:40;;;;;;;19.27;9.98;;;;;;;5.04;91.16;100902.19;5092878;28;20030;-84
2023/04/15 05:39:06;;;;;;;19.80;10.05;;;;;;;5.13;90.32;100904.84;5093018;28;20111;-84
2023/04/15 05:41:31;;;;;;;19.23;9.90;;;;;;;5.10;90.92;100908.25;5092127;28;20062;-84
2023/04/15 05:43:57;;;;;;;18.98;9.55;;;;;;;5.11;90.72;100909.13;5093329;28;20024;-84
2023/04/15 05:46:24;;;;;;;20.40;10.07;;;;;;;5.14;90.93;100914.28;5092594;28;20024;-84
2023/04/15 05:48:50;;;;;;;18.17;9.68;;;;;;;5.14;90.72;100928.88;5092562;28;20024;-84
2023/04/15 05:51:15;;;;;;;19.13;10.65;;;;;;;5.17;91.60;100932.31;5093878;28;20437;-84
2023/04/15 05:53:40;;;;;;;18.67;9.68;;;;;;;5.19;90.74;100930.63;5093701;28;20111;-84
2023/04/15 05:56:06;;;;;;;18.58;10.23;;;;;;;5.20;91.12;100934.06;5091763;28;20056;-84
2023/04/15 05:58:31;;;;;;;19.55;10.30;;;;;;;5.20;91.19;100936.63;5092628;28;20111;-84
2023/04/15 06:00:57;;;;;;;19.33;10.60;;;;;;;5.19;91.30;100942.63;5092428;28;20028;-84
2023/04/15 06:03:22;;;;;;;18.95;10.27;;;;;;;5.24;90.87;100951.25;5091829;28;20031;-84
2023/04/15 06:05:48;;;;;;;19.70;10.13;;;;;;;5.23;91.28;100947.84;5093015;28;20031;-84
2023/04/15 06:08:13;;;;;;;20.03;10.47;;;;;;;5.27;90.98;100948.72;5092764;28;20013;-84
2023/04/15 06:10:38;;;;;;;19.57;10.17;;;;;;;5.31;90.98;100955.59;5091593;28;20126;-86
2023/04/15 06:13:04;;;;;;;18.47;9.83;;;;;;;5.33;90.76;100965.91;5092688;28;20016;-82
2023/04/15 06:15:30;;;;;;;18.40;9.95;;;;;;;5.33;90.77;100953.91;5090647;28;20384;-83
2023/04/15 06:17:55;;;;;;;19.13;10.43;;;;;;;5.37;90.72;100965.06;5080373;28;20403;-84
2023/04/15 06:20:21;;;;;;;19.10;10.10;;;;;;;5.41;90.53;100959.97;5096650;28;20024;-84
2023/04/15 06:22:46;;;;;;;20.20;10.38;;;;;;;5.53;90.27;100978.94;5096107;28;20464;-84
2023/04/15 06:25:14;;;;;;;19.67;10.50;;;;;;;5.59;90.53;100989.28;5096566;28;20028;-87
2023/04/15 06:27:40;;;;;;;18.92;10.45;;;;;;;5.62;90.23;100984.19;5091647;28;20040;-84
2023/04/15 06:30:06;;;;;;;19.67;10.20;;;;;;;5.70;90.02;100990.22;5095745;28;20020;-83
2023/04/15 06:32:32;;;;;;;19.73;11.00;;;;;;;5.77;89.92;100996.28;5096325;28;20028;-83
2023/04/15 06:34:57;;;;;;;20.02;10.57;;;;;;;5.83;89.87;100998.91;5096503;28;20277;-84
2023/04/15 06:37:22;;;;;;;18.90;10.50;;;;;;;5.90;89.56;100997.22;5094959;28;20156;-83
2023/04/15 06:39:48;;;;;;;18.33;9.97;;;;;;;5.99;89.09;101002.47;5096481;28;20027;-84
2023/04/15 06:42:13;;;;;;;20.70;10.63;;;;;;;6.07;88.67;101005.09;5096462;28;20024;-84
2023/04/15 06:44:38;;;;;;;18.73;10.27;;;;;;;6.16;88.90;101020.59;5095249;28;20368;-83
2023/04/15 06:47:04;;;;;;;19.15;10.50;;;;;;;6.23;88.27;101024.09;5096009;28;20032;-84
2023/04/15 06:49:29;;;;;;;18.57;10.30;;;;;;;6.34;88.10;101019.84;5095424;28;20032;-83
2023/04/15 06:51:54;;;;;;;18.23;10.03;;;;;;;6.42;88.22;101019.88;5095410;28;20020;-83
2023/04/15 06:54:20;;;;;;;20.43;10.60;;;;;;;6.59;87.15;101030.28;5095287;28;20503;-84
2023/04/15 06:56:46;;;;;;;18.90;10.43;;;;;;;6.72;87.21;101032.91;5096196;28;20127;-84
2023/04/15 06:59:13;;;;;;;19.10;10.80;;;;;;;6.82;86.63;101028.63;5095229;28;20151;-83
2023/04/15 07:01:39;;;;;;;20.15;11.00;;;;;;;6.95;86.85;101036.44;5095532;28;20031;-84
2023/04/15 07:04:07;;;;;;;18.77;9.88;;;;;;;7.09;86.81;101039.03;5095713;28;20035;-84
2023/04/15 07:06:35;;;;;;;19.73;10.57;;;;;;;7.23;86.82;101044.22;5095042;28;20438;-84
2023/04/15 07:09:03;;;;;;;18.52;10.35;;;;;;;8.04;83.53;101039.06;5095745;28;20081;-84
2023/04/15 07:11:29;;;;;;;18.85;10.32;;;;;;;9.70;76.45;101051.22;5095652;28;20384;-84
2023/04/15 07:13:54;;;;;;;19.40;10.03;;;;;;;10.60;71.15;101052.94;5095069;28;20020;-84
2023/04/15 07:16:20;;;;;;;17.70;9.53;;;;;;;11.36;70.29;101059.72;5093636;28;20403;-84
2023/04/15 07:18:45;;;;;;;17.53;9.27;;;;;;;11.72;67.63;101052.19;5095606;28;20028;-83
2023/04/15 07:21:13;;;;;;;16.20;8.90;;;;;;;12.17;67.53;101062.72;5094540;28;20030;-84
2023/04/15 07:23:39;;;;;;;17.80;9.40;;;;;;;11.41;66.08;101066.56;5095529;28;20057;-86
2023/04/15 07:26:04;;;;;;;16.87;8.87;;;;;;;10.57;69.79;101066.81;5095115;28;20032;-84
2023/04/15 07:28:30;;;;;;;16.83;8.93;;;;;;;9.91;73.36;101068.31;5094944;28;20024;-86
2023/04/15 07:30:58;;;;;;;18.90;9.80;;;;;;;9.45;75.09;101073.88;5094050;28;20052;-85
2023/04/15 07:33:23;;;;;;;17.90;10.00;;;;;;;9.02;77.13;101075.84;5094289;28;20032;-85
2023/04/15 07:35:48;;;;;;;17.77;9.20;;;;;;;8.91;78.51;101086.25;5095345;28;20372;-86
2023/04/15 07:38:14;;;;;;;18.40;9.83;;;;;;;8.76;77.77;101092.38;5094704;28;20051;-86
2023/04/15 07:40:39;;;;;;;18.13;9.23;;;;;;;8.78;78.72;101088.00;5090889;28;20035;-86
2023/04/15 07:43:05;;;;;;;17.77;9.23;;;;;;;8.88;77.48;101100.94;5094938;28;20032;-85
2023/04/15 07:45:31;;;;;;;16.97;8.77;;;;;;;8.93;77.40;101106.94;5093643;28;20020;-87
2023/04/15 07:47:56;;;;;;;17.53;9.03;;;;;;;8.92;77.49;101106.09;5094444;28;20028;-87
2023/04/15 07:50:22;;;;;;;17.63;8.90;;;;;;;8.96;76.47;101102.63;5144358;23;20126;-84
2023/04/15 07:52:48;;;;;;;17.00;8.40;;;;;;;9.05;76.23;101104.31;5077351;28;20025;-83
2023/04/15 07:55:18;;;;;;;17.70;8.88;;;;;;;9.10;76.39;101102.56;5073789;28;20426;-84
2023/04/15 07:57:44;;;;;;;17.02;8.75;;;;;;;9.22;74.76;101109.41;5072851;28;20039;-85
2023/04/15 08:00:10;;;;;;;15.63;8.20;;;;;;;9.21;74.37;101117.19;5074179;28;20063;-85
2023/04/15 08:02:36;;;;;;;16.30;8.30;;;;;;;9.26;73.88;101121.47;5072567;28;20063;-84
2023/04/15 08:05:03;;;;;;;17.07;9.03;;;;;;;9.17;73.67;101131.88;5072931;28;20108;-85
2023/04/15 08:07:28;;;;;;;16.73;8.98;;;;;;;9.22;74.01;101135.28;5073957;28;20139;-84
2023/04/15 08:09:54;;;;;;;15.67;8.10;;;;;;;9.31;74.07;101126.63;5073776;28;20020;-85
2023/04/15 08:12:19;;;;;;;15.43;7.90;;;;;;;9.38;72.25;101130.91;5073599;28;20154;-84
2023/04/15 08:14:45;;;;;;;13.47;6.77;;;;;;;9.45;72.09;101129.13;5074375;28;20023;-84
2023/04/15 08:17:10;;;;;;;15.23;7.10;;;;;;;9.55;71.89;101137.72;5093158;28;20044;-84
2023/04/15 08:19:36;;;;;;;13.07;6.70;;;;;;;9.67;72.51;101142.81;5093869;28;20031;-85
2023/04/15 08:22:01;;;;;;;13.97;6.70;;;;;;;9.81;71.15;101147.03;5094466;28;20476;-85
2023/04/15 08:24:27;;;;;;;14.50;7.27;;;;;;;9.84;71.00;101170.34;5093157;28;20045;-85
2023/04/15 08:26:52;;;;;;;14.67;7.13;;;;;;;9.84;69.61;101162.56;5094390;28;20020;-85
2023/04/15 08:29:17;;;;;;;15.83;7.10;;;;;;;9.87;69.56;101157.38;5093562;28;20036;-85
2023/04/15 08:31:43;;;;;;;13.40;6.43;;;;;;;10.08;68.69;101158.06;5094095;28;20042;-85
2023/04/15 08:34:10;;;;;;;13.40;6.00;;;;;;;10.31;68.77;101160.44;5094307;28;20538;-85
2023/04/15 08:36:35;;;;;;;;;;;;;;;10.50;66.87;101172.44;5093774;28;20024;-84
2023/04/15 08:39:01;;;;;;;11.57;5.63;;;;;;;10.69;67.78;101172.22;5094079;28;20355;-84
2023/04/15 08:41:39;;;;;;;11.15;5.93;;;;;;;10.81;65.81;101179.91;5093715;28;20095;-85
2023/04/15 08:44:04;;;;;;;12.93;5.80;;;;;;;10.80;65.52;101180.75;5093213;28;20028;-84
2023/04/15 08:46:32;;;;;;;11.00;5.60;;;;;;;10.79;65.04;101191.19;5093300;28;20506;-84
2023/04/15 08:48:58;;;;;;;11.00;5.70;;;;;;;10.76;65.31;101197.25;5093596;28;20040;-85
2023/04/15 08:51:24;;;;;;;12.00;5.80;;;;;;;10.73;65.67;101189.50;5092784;28;20428;-84
2023/04/15 08:53:51;;;;;;;11.37;5.30;;;;;;;10.88;62.96;101204.06;5093593;28;20472;-85
2023/04/15 08:56:18;;;;;;;12.27;5.20;;;;;;;10.83;62.94;101213.63;5093499;28;20028;-85
2023/04/15 08:58:45;;;;;;;9.80;4.60;;;;;;;11.03;65.22;101204.78;5092482;28;20035;-84
2023/04/15 09:01:11;;;;;;;;;;;;;;;11.18;61.45;101217.56;5093844;28;20028;-84
2023/04/15 09:03:40;;;;;;;8.95;4.68;;;;;;;11.24;60.46;101221.81;5093223;28;19912;-84
2023/04/15 09:06:06;;;;;;;12.35;5.40;;;;;;;11.18;60.78;101222.75;5083642;28;20039;-83
2023/04/15 09:08:33;;;;;;;10.40;5.50;;;;;;;11.20;60.71;101226.22;5072577;28;20032;-84
2023/04/15 09:10:58;;;;;;;13.23;5.70;;;;;;;11.25;61.17;101226.16;5073043;28;20055;-88
2023/04/15 09:13:24;;;;;;;12.63;5.33;;;;;;;11.36;61.38;101231.22;5072262;28;20028;-87
2023/04/15 09:15:49;;;;;;;11.17;5.50;;;;;;;11.36;61.27;101232.06;5079936;28;20070;-87
2023/04/15 09:18:28;;;;;;;10.40;5.20;;;;;;;11.39;59.70;101249.38;5093182;28;20039;-86
2023/04/15 09:20:53;;;;;;;12.40;5.40;;;;;;;11.26;61.59;101249.50;5093598;28;20030;-87
2023/04/15 09:23:18;;;;;;;10.40;5.10;;;;;;;11.36;61.34;101254.63;5093276;28;20016;-86
2023/04/15 09:25:44;;;;;;;9.70;5.27;;;;;;;11.52;61.48;101258.72;5092173;28;20024;-87
2023/04/15 09:28:10;;;;;;;12.27;5.63;;;;;;;11.48;60.65;101254.47;5092999;28;20032;-86
2023/04/15 09:30:36;;;;;;;9.23;5.10;;;;;;;11.63;60.69;101268.13;5092943;28;20031;-80
2023/04/15 09:33:06;;;;;;;8.07;4.63;;;;;;;11.76;59.00;101269.69;5086564;28;20027;-87
2023/04/15 09:35:32;;;;;;;9.48;4.82;;;;;;;11.80;58.80;101275.72;5072774;28;20055;-86
2023/04/15 09:38:08;;;;;;;9.00;4.83;;;;;;;11.68;59.83;101279.34;5072689;28;20066;-86
2023/04/15 09:40:36;;;;;;;8.77;4.95;;;;;;;11.70;59.23;101281.03;5071720;28;20016;-86
2023/04/15 09:43:03;;;;;;;11.18;5.43;;;;;;;11.47;59.51;101265.75;5072719;28;20209;-86
2023/04/15 09:45:29;;;;;;;8.95;4.50;;;;;;;11.67;59.51;101280.22;5073550;28;20031;-85
2023/04/15 09:47:57;;;;;;;9.55;4.65;;;;;;;11.80;59.49;101278.31;5072204;28;20108;-86
2023/04/15 09:50:27;;;;;;;7.78;4.28;;;;;;;12.01;59.69;101285.84;5071914;28;20066;-85
2023/04/15 09:52:52;;;;;;;7.00;4.07;;;;;;;12.20;59.64;101278.63;5076924;28;20154;-87
2023/04/15 09:55:17;;;;;;;8.07;4.33;;;;;;;12.46;57.66;101277.38;5071400;28;20540;-86
2023/04/15 09:57:46;;;;;;;7.93;4.27;;;;;;;12.47;59.10;101289.50;5072348;28;20029;-85
2023/04/15 10:00:12;;;;;;;9.63;4.90;;;;;;;12.50;56.92;101289.44;5126816;22;20100;-87
2023/04/15 10:02:46;;;;;;;8.82;4.53;;;;;;;12.49;58.35;101285.16;5091905;28;20052;-85
2023/04/15 10:05:16;;;;;;;7.78;4.78;;;;;;;12.64;58.21;101285.75;5092818;28;20028;-87
2023/04/15 10:07:42;;;;;;;8.00;5.05;;;;;;;12.59;56.13;101296.25;5091696;28;20465;-86
2023/04/15 10:10:08;;;;;;;8.67;4.40;;;;;;;12.25;56.69;101298.53;5092668;28;20031;-85
2023/04/15 10:12:39;;;;;;;7.30;4.15;;;;;;;12.30;58.72;101299.31;5092173;28;20547;-86
2023/04/15 10:15:05;;;;;;;7.93;4.38;;;;;;;12.45;58.20;101308.63;5092056;28;20098;-86
2023/04/15 10:17:34;;;;;;;6.57;3.75;;;;;;;12.72;58.86;101298.66;5091942;28;20468;-85
2023/04/15 10:20:04;;;;;;;9.35;5.03;;;;;;;12.95;54.59;101293.03;5092623;28;20383;-86
2023/04/15 10:22:30;;;;;;;11.18;5.40;;;;;;;12.95;54.24;101291.31;5088321;28;20117;-85
2023/04/15 10:24:57;;;;;;;10.93;5.20;;;;;;;12.87;55.71;101297.53;5072212;28;20039;-85
2023/04/15 10:27:23;;;;;;;8.25;4.60;;;;;;;13.04;56.63;101295.50;5071818;28;20035;-86
2023/04/15 10:29:50;;;;;;;7.47;4.40;;;;;;;13.18;56.86;101299.56;5071792;28;20447;-86
2023/04/15 10:32:19;;;;;;;6.22;3.63;;;;;;;13.29;56.16;101308.03;5072394;28;20074;-86
2023/04/15 10:34:46;;;;;;;4.55;3.25;;;;;;;13.40;56.07;101318.31;5072388;28;20021;-86
2023/04/15 10:37:11;;;;;;;4.72;3.55;;;;;;;13.34;52.12;101311.44;5071263;28;20480;-86
2023/04/15 10:39:36;;;;;;;5.10;2.90;;;;;;;13.43;54.60;101313.03;5071717;28;20035;-85
2023/04/15 10:42:14;;;;;;;3.77;2.73;;;;;;;13.61;53.60;101317.03;5072395;28;20071;-86
2023/04/15 10:44:42;;;;;;;4.75;3.00;;;;;;;13.79;53.24;101322.75;5071855;28;20330;-85
2023/04/15 10:47:13;;;;;;;4.07;2.40;;;;;;;13.90;53.85;101318.16;5072236;28;20032;-85
2023/04/15 10:49:44;;;;;;;3.70;2.65;;;;;;;14.05;49.87;101328.28;5071780;28;20100;-86
2023/04/15 10:52:09;;;;;;;4.05;3.15;;;;;;;13.85;50.19;101318.25;5071030;28;20024;-85
2023/04/15 10:54:37;;;;;;;5.50;3.30;;;;;;;13.79;50.91;101320.13;5072062;28;20029;-85
2023/04/15 10:57:02;;;;;;;6.05;3.20;;;;;;;13.94;51.77;101318.94;5071117;28;20032;-85
2023/04/15 10:59:34;;;;;;;5.97;3.20;;;;;;;14.08;51.84;101318.63;5071746;28;20033;-85
2023/04/15 11:02:02;;;;;;;4.50;3.10;;;;;;;14.13;52.24;101328.06;5071737;28;20045;-86
2023/04/15 11:04:58;;;;;;;4.03;2.90;;;;;;;14.11;48.18;101336.84;5071076;28;20020;-86
2023/04/15 11:07:51;;;;;;;4.13;3.10;;;;;;;13.99;50.67;101333.59;5075055;28;20480;-87
2023/04/15 11:10:20;;;;;;;4.55;3.20;;;;;;;13.84;50.93;101332.19;5075172;28;20365;-86
2023/04/15 11:12:52;;;;;;;6.20;3.67;;;;;;;13.64;51.34;101332.59;5074712;28;20025;-86
2023/04/15 11:15:36;;;;;;;6.72;3.53;;;;;;;13.77;52.11;101335.84;5075076;28;20123;-87
2023/04/15 11:18:21;;;;;;;5.07;3.40;;;;;;;13.82;51.32;101333.13;5075117;28;20040;-86
2023/04/15 11:20:58;;;;;;;6.28;3.63;;;;;;;13.92;51.77;101336.38;5075609;28;20029;-88